Vitorino Freire, Brazil
Current Conditions -  °F | °C
As of 6:00 PM on Friday 28 Nov 2014 (Local Time) from SBSL Reporting Station
Few Clouds Few Clouds  
Wind Chill: 82°   Ceiling: Unl
Heat Index: 85°   Visibility: 6mi
Dew Point: 68°   Wind: 15mph
Humidity: 62%   Direction: 30°NNE
Pressure: 29.83"   Gusts: NA
Location:  4.29°S, 45.25°W
Report Text: SBSL 282100Z 03013KT 9999 FEW017 28/20 Q1010
Loading
Personal Weather Stations






























Interactive Weather Map New forecast layout! Learn more

10-Day Weather Forecast

Advertisements
Track Severe Weather on mobile